Time;durP1;ratioP1;P1;durP2;ratioP2;P2;SDS_P1;SDS_P2;PMS_P1;PMS_P2;Temp;Humidity;BMP_temperature;BMP_pressure;BME280_temperature;BME280_humidity;BME280_pressure;Samples;Min_cycle;Max_cycle;Signal;HPM_P1;HPM_P2
2023/02/14 00:01:34;;;;;;;;;;;;;;;;;;;;;
2023/02/14 00:04:37;;;;;;;;;;;;;;;;;;;;;
2023/02/14 00:07:36;;;;;;;;;;;;;;;;;;;;;
2023/02/14 00:10:30;;;;;;;14.52;10.13;;;6.60;99.90;;;;;;4886720;29;20116;-81
2023/02/14 00:34:32;;;;;;;15.60;9.93;;;6.20;99.90;;;;;;4919247;29;20040;-79
2023/02/14 00:36:59;;;;;;;13.57;9.85;;;6.20;99.90;;;;;;4920488;29;20036;-80
2023/02/14 00:39:25;;;;;;;17.17;10.07;;;6.20;99.90;;;;;;4903915;29;20051;-80
2023/02/14 00:41:53;;;;;;;14.23;8.88;;;6.20;99.90;;;;;;4903683;29;20032;-80
2023/02/14 00:44:19;;;;;;;14.23;10.55;;;6.20;99.90;;;;;;4920554;29;20031;-80
2023/02/14 00:46:44;;;;;;;15.10;10.02;;;6.10;99.90;;;;;;4920054;29;20029;-80
2023/02/14 00:49:13;;;;;;;13.95;9.77;;;6.10;99.90;;;;;;4903478;29;20032;-80
2023/02/14 00:51:39;;;;;;;16.10;10.05;;;6.10;99.90;;;;;;4903375;29;20078;-79
2023/02/14 00:54:05;;;;;;;15.27;10.02;;;6.00;99.90;;;;;;4920647;29;20392;-79
2023/02/14 00:56:31;;;;;;;16.40;10.23;;;6.00;99.90;;;;;;4903667;29;20107;-79
2023/02/14 00:58:57;;;;;;;15.43;9.50;;;5.90;99.90;;;;;;4903574;29;20032;-78
2023/02/14 01:01:23;;;;;;;15.82;10.35;;;5.90;99.90;;;;;;4920209;29;20044;-79
2023/02/14 01:04:16;;;;;;;14.25;10.05;;;5.90;99.90;;;;;;4903682;29;20060;-80
2023/02/14 01:21:47;;;;;;;;;;;;;;;;;;;;;
2023/02/14 01:24:25;;;;;;;13.60;9.05;;;5.80;99.90;;;;;;4760998;29;20439;-80
2023/02/14 01:27:11;;;;;;;12.38;8.38;;;5.80;99.90;;;;;;4835830;29;20041;-80
2023/02/14 01:29:37;;;;;;;14.55;9.43;;;5.80;99.90;;;;;;4831128;29;20095;-79
2023/02/14 01:32:02;;;;;;;14.57;10.48;;;5.80;99.90;;;;;;4846186;29;20030;-79
2023/02/14 01:34:28;;;;;;;15.95;10.25;;;5.80;99.90;;;;;;4868131;29;20568;-78
2023/02/14 01:36:54;;;;;;;14.10;9.82;;;5.80;99.90;;;;;;4923304;29;20441;-78
2023/02/14 01:39:20;;;;;;;16.42;11.07;;;5.80;99.90;;;;;;4906346;29;20024;-79
2023/02/14 01:41:49;;;;;;;16.58;10.18;;;5.70;99.90;;;;;;4923347;29;20032;-79
2023/02/14 01:44:15;;;;;;;17.38;10.30;;;5.70;99.90;;;;;;4906273;29;20028;-77
2023/02/14 01:46:43;;;;;;;16.90;11.85;;;5.70;99.90;;;;;;4923116;29;20035;-77
2023/02/14 01:49:32;;;;;;;16.38;10.60;;;5.70;99.90;;;;;;4923162;29;20443;-79
2023/02/14 01:52:03;;;;;;;15.88;10.80;;;5.60;99.90;;;;;;4923466;29;20430;-79
2023/02/14 01:54:30;;;;;;;17.00;11.05;;;5.60;99.90;;;;;;4906345;29;20160;-78
2023/02/14 01:57:00;;;;;;;16.63;11.43;;;5.60;99.90;;;;;;4922760;29;20465;-78
2023/02/14 01:59:31;;;;;;;16.63;11.40;;;5.50;99.90;;;;;;4923042;29;20088;-79
2023/02/14 02:01:57;;;;;;;17.20;10.63;;;5.50;99.90;;;;;;4922360;29;20125;-79
2023/02/14 02:04:32;;;;;;;17.38;11.27;;;5.50;99.90;;;;;;4922634;29;20060;-79
2023/02/14 02:07:01;;;;;;;17.27;11.35;;;5.60;99.90;;;;;;4922489;29;20032;-79
2023/02/14 02:09:50;;;;;;;17.30;11.68;;;5.60;99.90;;;;;;4922603;29;20557;-78
2023/02/14 02:12:16;;;;;;;14.65;10.02;;;5.60;99.90;;;;;;4904846;29;20040;-79
2023/02/14 02:19:10;;;;;;;12.73;8.60;;;5.60;99.90;;;;;;4841877;29;20086;-81
2023/02/14 02:42:55;;;;;;;13.95;8.63;;;5.40;99.90;;;;;;4898965;29;20989;-81
2023/02/14 02:49:05;;;;;;;13.05;8.98;;;5.20;99.90;;;;;;4884330;29;20579;-80
2023/02/14 02:54:42;;;;;;;13.60;8.93;;;5.20;99.90;;;;;;4880420;29;20048;-80
2023/02/14 02:57:21;;;;;;;14.05;9.18;;;5.10;99.90;;;;;;4884127;29;20494;-80
2023/02/14 02:59:50;;;;;;;13.52;8.95;;;5.20;99.90;;;;;;4884014;29;20116;-81
2023/02/14 03:02:21;;;;;;;14.63;9.32;;;5.20;99.90;;;;;;4885750;29;20029;-80
2023/02/14 03:04:52;;;;;;;12.82;8.73;;;5.20;99.90;;;;;;4875778;29;20043;-80
2023/02/14 03:07:35;;;;;;;16.67;9.98;;;5.10;99.90;;;;;;4883795;29;20032;-80
2023/02/14 03:10:11;;;;;;;16.92;10.10;;;5.10;99.90;;;;;;4881133;29;20060;-80
2023/02/14 03:13:06;;;;;;;15.43;9.82;;;5.10;99.90;;;;;;4888758;29;20478;-81
2023/02/14 03:15:49;;;;;;;;;;;;;;;;;;;;;
2023/02/14 03:21:48;;;;;;;;;;;;;;;;;;;;;
2023/02/14 03:27:57;;;;;;;12.68;8.80;;;5.00;99.90;;;;;;4902140;29;20165;-79
2023/02/14 03:30:43;;;;;;;12.73;8.70;;;4.90;99.90;;;;;;4902439;29;20036;-80
2023/02/14 03:33:29;;;;;;;11.35;7.68;;;4.90;99.90;;;;;;4885055;29;20059;-80
2023/02/14 03:36:09;;;;;;;11.85;8.20;;;4.90;99.90;;;;;;4902332;29;20020;-80
2023/02/14 03:50:30;;;;;;;12.18;7.90;;;4.70;99.90;;;;;;5952408;23;20027;-81
2023/02/14 03:52:58;;;;;;;13.43;8.48;;;4.60;99.90;;;;;;4900799;29;20060;-80
2023/02/14 03:55:49;;;;;;;;;;;;;;;;;;;;;
2023/02/14 04:15:29;;;;;;;;;;;;;;;;;;;;;
2023/02/14 04:21:29;;;;;;;11.27;7.30;;;4.60;99.90;;;;;;4897798;29;20413;-80
2023/02/14 04:23:55;;;;;;;10.55;7.38;;;4.60;99.90;;;;;;4885264;29;20033;-79
2023/02/14 04:26:20;;;;;;;11.55;7.72;;;4.60;99.90;;;;;;4901800;29;20057;-78
2023/02/14 04:28:46;;;;;;;12.70;7.88;;;4.50;99.90;;;;;;4901771;29;20446;-78
2023/02/14 04:31:12;;;;;;;11.48;7.57;;;4.50;99.90;;;;;;4901822;29;20044;-79
2023/02/14 04:37:20;;;;;;;11.05;6.75;;;4.50;99.90;;;;;;4840635;29;20045;-78
2023/02/14 04:43:01;;;;;;;10.38;7.20;;;4.50;99.90;;;;;;4893111;29;20043;-79
2023/02/14 04:45:26;;;;;;;10.65;6.72;;;4.50;99.90;;;;;;4901457;29;20033;-79
2023/02/14 04:47:52;;;;;;;10.38;7.25;;;4.50;99.90;;;;;;4884301;29;20032;-79
2023/02/14 04:50:25;;;;;;;12.82;8.00;;;4.50;99.90;;;;;;4901774;29;20064;-79
2023/02/14 04:52:53;;;;;;;10.95;7.63;;;4.40;99.90;;;;;;4898591;29;20044;-79
2023/02/14 04:55:19;;;;;;;11.73;7.38;;;4.40;99.90;;;;;;4884995;29;20075;-79
2023/02/14 04:57:45;;;;;;;11.32;8.25;;;4.40;99.90;;;;;;4888062;29;20033;-79
2023/02/14 05:03:47;;;;;;;10.98;7.43;;;4.40;99.90;;;;;;4879128;29;20516;-80
2023/02/14 05:17:18;;;;;;;9.98;6.70;;;4.30;99.90;;;;;;4693218;30;20107;-78
2023/02/14 05:19:59;;;;;;;9.88;6.80;;;4.30;99.90;;;;;;4738858;30;20064;-84
2023/02/14 05:26:44;;;;;;;10.68;6.63;;;4.30;99.90;;;;;;4698785;30;20101;-81
2023/02/14 05:29:16;;;;;;;9.85;6.55;;;4.30;99.90;;;;;;4693901;30;20056;-79
2023/02/14 05:31:42;;;;;;;10.32;6.50;;;4.20;99.90;;;;;;4673457;30;20562;-79
2023/02/14 05:34:10;;;;;;;9.77;6.70;;;4.20;99.90;;;;;;4756437;29;20042;-80
2023/02/14 05:36:56;;;;;;;11.88;7.40;;;4.20;99.90;;;;;;4846568;29;20038;-81
2023/02/14 05:39:34;;;;;;;10.50;7.00;;;4.20;99.90;;;;;;4846588;29;20042;-85
2023/02/14 05:42:07;;;;;;;12.50;7.78;;;4.20;99.90;;;;;;4846570;29;20121;-83
2023/02/14 05:44:36;;;;;;;9.73;7.15;;;4.20;99.90;;;;;;4846432;29;20034;-80
2023/02/14 05:47:02;;;;;;;10.75;7.57;;;4.20;99.90;;;;;;4868861;29;20056;-78
2023/02/14 05:49:28;;;;;;;11.40;7.22;;;4.20;99.90;;;;;;4885707;29;20029;-78
2023/02/14 05:51:53;;;;;;;11.93;7.60;;;4.20;99.90;;;;;;4886721;29;20176;-78
2023/02/14 05:54:19;;;;;;;10.30;7.13;;;4.20;99.90;;;;;;4887435;29;20029;-79
2023/02/14 05:56:45;;;;;;;13.07;8.70;;;4.20;99.90;;;;;;4887298;29;20032;-79
2023/02/14 05:59:10;;;;;;;14.95;7.38;;;4.20;99.90;;;;;;4903659;29;20029;-79
2023/02/14 06:01:36;;;;;;;11.10;7.18;;;4.20;99.90;;;;;;4903106;29;20088;-77
2023/02/14 06:04:02;;;;;;;12.18;7.65;;;4.10;99.90;;;;;;4903213;29;20047;-79
2023/02/14 06:06:27;;;;;;;14.10;7.95;;;4.00;99.90;;;;;;4903604;29;20146;-79
2023/02/14 06:08:53;;;;;;;13.07;7.85;;;4.00;99.90;;;;;;4902353;29;20044;-78
2023/02/14 06:11:19;;;;;;;11.77;7.55;;;4.00;99.90;;;;;;4901981;29;20371;-78
2023/02/14 06:13:44;;;;;;;12.05;7.88;;;4.00;99.90;;;;;;4886942;29;20045;-78
2023/02/14 06:16:10;;;;;;;13.02;8.38;;;4.00;99.90;;;;;;4903063;29;20512;-78
2023/02/14 06:18:36;;;;;;;11.32;7.65;;;4.00;99.90;;;;;;4907387;29;20039;-77
2023/02/14 06:21:01;;;;;;;10.70;7.00;;;4.00;99.90;;;;;;4893048;29;20024;-76
2023/02/14 06:23:27;;;;;;;10.68;6.80;;;4.00;99.90;;;;;;4903011;29;20084;-77
2023/02/14 06:25:53;;;;;;;10.65;6.88;;;3.90;99.90;;;;;;4885496;29;20032;-77
2023/02/14 06:28:18;;;;;;;10.55;6.82;;;4.00;99.90;;;;;;4902738;29;20044;-77
2023/02/14 06:30:46;;;;;;;11.50;7.65;;;3.90;99.90;;;;;;4903596;29;20056;-77
2023/02/14 06:36:37;;;;;;;9.43;6.38;;;3.90;99.90;;;;;;4892937;29;20051;-79
2023/02/14 06:39:03;;;;;;;10.50;6.68;;;3.90;99.90;;;;;;4885929;29;20405;-79
2023/02/14 06:41:29;;;;;;;10.45;6.97;;;3.80;99.90;;;;;;4887771;29;20043;-79
2023/02/14 06:43:55;;;;;;;11.40;6.82;;;3.90;99.90;;;;;;4901122;29;20111;-79
2023/02/14 06:46:21;;;;;;;11.48;7.18;;;3.90;99.90;;;;;;4902241;29;20061;-78
2023/02/14 06:48:46;;;;;;;11.02;6.75;;;3.90;99.90;;;;;;4901966;29;20039;-79
2023/02/14 06:51:12;;;;;;;10.27;6.82;;;4.00;99.90;;;;;;4885982;29;20501;-79
2023/02/14 06:53:38;;;;;;;12.05;7.22;;;3.90;99.90;;;;;;4903020;29;20196;-79
2023/02/14 06:56:04;;;;;;;12.75;8.00;;;3.90;99.90;;;;;;4898732;29;20029;-80
2023/02/14 07:05:40;;;;;;;8.73;5.68;;;3.90;99.90;;;;;;4807238;29;20035;-79
2023/02/14 07:08:09;;;;;;;10.88;6.68;;;4.00;99.90;;;;;;4834855;29;20124;-80
2023/02/14 07:10:34;;;;;;;9.85;6.35;;;4.10;99.90;;;;;;4862830;29;20033;-79
2023/02/14 07:13:01;;;;;;;11.52;7.05;;;4.10;99.90;;;;;;4900120;29;20075;-79
2023/02/14 07:15:26;;;;;;;11.00;7.40;;;4.10;99.90;;;;;;4909010;29;20030;-79
2023/02/14 07:18:11;;;;;;;;;;;;;;;;;;;;;
2023/02/14 07:20:50;;;;;;;9.65;5.82;;;4.10;99.90;;;;;;4900648;29;20119;-80
2023/02/14 07:23:29;;;;;;;;;;;;;;;;;;;;;
2023/02/14 07:25:55;;;;;;;13.63;8.00;;;4.10;99.90;;;;;;4897814;29;20116;-81
2023/02/14 07:31:24;;;;;;;11.68;6.50;;;4.10;99.90;;;;;;4880598;29;20040;-79
2023/02/14 07:33:50;;;;;;;12.07;7.03;;;4.10;99.90;;;;;;4901482;29;20875;-79
2023/02/14 07:36:16;;;;;;;11.23;7.03;;;4.00;99.90;;;;;;4900995;29;20031;-80
2023/02/14 07:38:42;;;;;;;10.90;6.95;;;3.90;99.90;;;;;;4899876;29;20405;-79
2023/02/14 07:41:07;;;;;;;12.63;7.35;;;4.00;99.90;;;;;;4900716;29;20032;-79
2023/02/14 08:18:03;;;;;;;10.40;6.40;;;4.00;99.90;;;;;;4828291;29;20481;-78
2023/02/14 08:20:29;;;;;;;14.90;7.65;;;4.10;99.90;;;;;;4898803;29;20033;-79
2023/02/14 08:22:55;;;;;;;13.10;6.88;;;4.20;99.90;;;;;;4895134;29;20035;-78
2023/02/14 08:25:21;;;;;;;13.70;7.70;;;4.20;99.90;;;;;;4873890;29;20406;-78
2023/02/14 08:27:46;;;;;;;13.70;7.53;;;4.30;99.90;;;;;;4881438;29;20033;-78
2023/02/14 08:30:13;;;;;;;14.45;8.40;;;4.30;99.90;;;;;;4894301;29;20390;-78
2023/02/14 08:32:39;;;;;;;17.15;8.82;;;4.40;99.90;;;;;;4887747;29;20076;-80
2023/02/14 08:35:04;;;;;;;17.02;9.20;;;4.30;99.90;;;;;;4881355;29;20510;-71
2023/02/14 08:37:30;;;;;;;12.45;8.02;;;4.30;99.90;;;;;;4889844;29;20080;-69
2023/02/14 08:39:56;;;;;;;14.02;7.80;;;4.40;99.90;;;;;;4899049;29;20039;-69
2023/02/14 08:42:21;;;;;;;12.35;7.75;;;4.50;99.90;;;;;;4884639;29;20043;-69
2023/02/14 08:44:47;;;;;;;12.23;7.60;;;4.60;99.90;;;;;;4894067;29;20033;-71
2023/02/14 08:47:13;;;;;;;13.10;7.55;;;4.70;99.90;;;;;;4901296;29;20524;-71
2023/02/14 08:49:38;;;;;;;11.93;7.53;;;4.70;99.90;;;;;;4892051;29;20141;-70
2023/02/14 08:52:04;;;;;;;12.60;7.22;;;4.80;99.90;;;;;;4892782;29;20028;-71
2023/02/14 08:54:30;;;;;;;12.52;8.07;;;4.80;99.90;;;;;;4886135;29;20021;-68
2023/02/14 08:56:56;;;;;;;14.85;7.60;;;4.80;99.90;;;;;;4903105;29;20048;-68
2023/02/14 08:59:21;;;;;;;13.25;7.65;;;4.90;99.90;;;;;;4886953;29;20031;-68
2023/02/14 09:01:47;;;;;;;11.10;7.35;;;4.90;99.90;;;;;;4903644;29;20413;-68
2023/02/14 09:04:13;;;;;;;13.18;7.35;;;5.00;99.90;;;;;;4904839;29;20047;-68
2023/02/14 09:06:39;;;;;;;12.18;7.95;;;5.00;99.90;;;;;;4886989;29;20051;-68
2023/02/14 09:09:05;;;;;;;10.07;6.93;;;5.10;99.90;;;;;;4904188;29;20050;-68
2023/02/14 09:11:31;;;;;;;12.52;7.68;;;5.10;99.90;;;;;;4886690;29;20498;-68
2023/02/14 09:13:57;;;;;;;9.55;6.40;;;5.20;99.90;;;;;;4903556;29;20033;-68
2023/02/14 09:16:25;;;;;;;10.60;6.43;;;5.20;99.90;;;;;;4886909;29;20024;-68
2023/02/14 09:18:52;;;;;;;10.68;6.75;;;5.30;99.90;;;;;;4904256;29;20076;-68
2023/02/14 09:21:23;;;;;;;10.07;6.13;;;5.40;99.90;;;;;;4904215;29;20028;-68
2023/02/14 09:23:48;;;;;;;10.18;6.53;;;5.40;99.90;;;;;;4904294;29;20044;-68
2023/02/14 09:26:15;;;;;;;10.80;7.40;;;5.50;99.90;;;;;;4904020;29;20427;-68
2023/02/14 09:28:41;;;;;;;11.93;6.78;;;5.50;99.90;;;;;;4903969;29;20035;-72
2023/02/14 09:31:09;;;;;;;11.68;6.43;;;5.60;99.90;;;;;;4903659;29;20076;-71
2023/02/14 09:33:36;;;;;;;12.13;7.40;;;5.60;99.90;;;;;;4903370;29;20033;-70
2023/02/14 09:36:10;;;;;;;12.73;6.97;;;5.70;99.90;;;;;;4904100;29;20099;-70
2023/02/14 09:38:36;;;;;;;10.65;6.97;;;5.70;99.90;;;;;;4903507;29;20057;-71
2023/02/14 09:41:06;;;;;;;11.32;6.82;;;5.80;99.90;;;;;;4904400;29;20025;-70
2023/02/14 09:43:50;;;;;;;12.13;6.80;;;5.90;99.90;;;;;;4902617;29;20028;-70
2023/02/14 09:46:17;;;;;;;9.52;6.47;;;6.00;99.90;;;;;;4908091;29;20548;-70
2023/02/14 09:48:46;;;;;;;12.32;7.10;;;6.00;99.90;;;;;;4909958;29;20118;-69
2023/02/14 09:51:19;;;;;;;11.57;7.45;;;6.10;99.90;;;;;;4906559;29;20037;-69
2023/02/14 09:54:10;;;;;;;10.82;7.25;;;6.10;99.90;;;;;;4907573;29;20029;-69
2023/02/14 09:57:01;;;;;;;12.15;7.63;;;6.20;99.90;;;;;;4906871;29;20036;-70
2023/02/14 09:59:56;;;;;;;11.70;7.18;;;6.30;99.90;;;;;;4911908;29;20041;-71
2023/02/14 10:02:37;;;;;;;10.27;6.63;;;6.30;99.90;;;;;;4903046;29;20024;-69
2023/02/14 10:05:15;;;;;;;12.50;7.60;;;6.50;99.90;;;;;;4903964;29;20397;-71
2023/02/14 10:08:19;;;;;;;10.77;7.35;;;6.60;99.90;;;;;;4910203;29;20115;-71
2023/02/14 10:10:46;;;;;;;;;;;6.60;99.90;;;;;;4817076;29;20030;-71
2023/02/14 10:13:27;;;;;;;8.98;5.95;;;6.70;99.90;;;;;;4827192;29;19908;-71
2023/02/14 10:16:08;;;;;;;11.18;7.10;;;6.80;99.90;;;;;;4871148;29;20043;-71
2023/02/14 10:18:50;;;;;;;11.30;7.50;;;6.80;99.90;;;;;;4907032;29;20043;-71
2023/02/14 10:21:43;;;;;;;10.80;6.90;;;6.90;99.90;;;;;;4903469;29;20455;-71
2023/02/14 10:24:16;;;;;;;10.20;6.47;;;6.90;99.90;;;;;;4908247;29;20040;-71
2023/02/14 10:26:43;;;;;;;11.18;6.82;;;7.00;99.90;;;;;;4886359;29;20060;-71
2023/02/14 10:29:17;;;;;;;10.82;7.00;;;7.00;99.90;;;;;;4903538;29;20020;-71
2023/02/14 10:31:59;;;;;;;11.10;7.40;;;7.00;99.90;;;;;;4893580;29;20536;-72
2023/02/14 10:34:39;;;;;;;10.50;6.55;;;7.10;99.90;;;;;;4902691;29;20037;-71
2023/02/14 10:37:24;;;;;;;11.57;7.20;;;7.30;99.90;;;;;;4899216;29;20032;-71
2023/02/14 10:40:19;;;;;;;11.15;7.43;;;7.40;99.90;;;;;;4896603;29;20028;-70
2023/02/14 10:43:10;;;;;;;10.57;6.93;;;7.50;99.90;;;;;;4884169;29;20037;-70
2023/02/14 10:45:45;;;;;;;10.50;6.93;;;7.50;99.90;;;;;;4898312;29;20056;-71
2023/02/14 10:48:15;;;;;;;11.73;7.68;;;7.50;99.90;;;;;;4902342;29;20025;-70
2023/02/14 10:50:47;;;;;;;11.23;7.57;;;7.50;99.90;;;;;;4902325;29;20028;-70
2023/02/14 10:53:23;;;;;;;12.23;7.50;;;7.60;99.90;;;;;;4900621;29;20029;-70
2023/02/14 10:56:17;;;;;;;10.90;7.28;;;7.70;99.90;;;;;;4901841;29;20045;-70
2023/02/14 10:58:43;;;;;;;;;;;7.80;99.90;;;;;;4885085;29;20513;-70
2023/02/14 11:01:12;;;;;;;10.18;6.03;;;7.80;99.90;;;;;;4902002;29;20347;-71
2023/02/14 11:03:41;;;;;;;10.80;7.35;;;7.90;99.90;;;;;;4884835;29;20043;-71
2023/02/14 11:06:10;;;;;;;9.88;6.93;;;7.90;99.90;;;;;;4885494;29;20108;-70
2023/02/14 11:08:38;;;;;;;9.43;6.35;;;8.00;99.90;;;;;;4899662;29;20055;-71
2023/02/14 11:11:14;;;;;;;10.80;7.45;;;8.10;99.90;;;;;;4902777;29;20016;-70
2023/02/14 11:13:41;;;;;;;11.77;7.10;;;8.20;99.90;;;;;;4901669;29;20043;-70
2023/02/14 11:16:09;;;;;;;13.25;7.75;;;8.30;99.90;;;;;;4883156;29;20028;-67
2023/02/14 11:18:38;;;;;;;13.98;8.13;;;8.40;99.90;;;;;;4898949;29;20603;-69
2023/02/14 11:21:12;;;;;;;12.85;7.53;;;8.60;99.90;;;;;;4899567;29;20028;-69
2023/02/14 11:23:47;;;;;;;12.25;7.90;;;8.70;99.90;;;;;;4889955;29;20053;-68
2023/02/14 11:26:29;;;;;;;10.43;6.85;;;8.70;99.90;;;;;;4890573;29;20035;-68
2023/02/14 11:28:58;;;;;;;14.43;8.50;;;8.90;99.90;;;;;;4901351;29;20447;-68
2023/02/14 11:31:34;;;;;;;12.38;8.23;;;9.00;99.90;;;;;;4897499;29;20017;-69
2023/02/14 11:34:01;;;;;;;13.32;8.38;;;9.10;99.90;;;;;;4900452;29;20041;-69
2023/02/14 11:36:29;;;;;;;11.98;7.82;;;9.10;99.90;;;;;;4901448;29;20080;-68
2023/02/14 11:39:03;;;;;;;12.38;8.45;;;9.10;99.90;;;;;;4901477;29;20025;-68
2023/02/14 11:41:46;;;;;;;12.60;7.50;;;9.00;99.90;;;;;;4901573;29;20020;-68
2023/02/14 11:44:21;;;;;;;11.85;7.47;;;9.10;99.90;;;;;;4902106;29;20029;-68
2023/02/14 11:46:50;;;;;;;14.57;8.30;;;9.20;99.90;;;;;;4902206;29;20044;-68
2023/02/14 11:49:33;;;;;;;11.77;7.88;;;9.30;99.90;;;;;;4901540;29;20028;-68
2023/02/14 11:52:08;;;;;;;13.70;8.80;;;9.40;99.90;;;;;;4901476;29;20051;-68
2023/02/14 11:54:36;;;;;;;13.30;8.50;;;9.40;99.90;;;;;;4901774;29;20329;-68
2023/02/14 11:57:10;;;;;;;12.38;8.25;;;9.50;99.90;;;;;;4884763;29;20112;-69
2023/02/14 11:59:41;;;;;;;12.93;8.20;;;9.50;99.90;;;;;;4901175;29;20028;-67
2023/02/14 12:02:26;;;;;;;12.00;8.15;;;9.50;99.90;;;;;;4900365;29;20024;-68
2023/02/14 12:04:57;;;;;;;13.05;8.52;;;9.60;99.90;;;;;;4881651;29;20084;-68
2023/02/14 12:07:34;;;;;;;13.38;8.07;;;9.70;99.90;;;;;;4901132;29;20064;-69
2023/02/14 12:10:14;;;;;;;13.10;8.68;;;9.60;99.90;;;;;;4900852;29;20032;-69
2023/02/14 12:12:48;;;;;;;13.98;8.40;;;9.60;99.90;;;;;;4884792;29;20032;-70
2023/02/14 12:15:36;;;;;;;16.45;8.25;;;9.60;99.90;;;;;;4901817;29;20021;-69
2023/02/14 12:18:29;;;;;;;12.27;8.35;;;9.70;99.90;;;;;;4901847;29;20092;-69
2023/02/14 12:21:04;;;;;;;10.82;7.90;;;9.70;99.90;;;;;;4901556;29;20058;-69
2023/02/14 12:23:58;;;;;;;11.80;7.65;;;9.80;99.90;;;;;;4907205;29;20083;-70
2023/02/14 12:26:52;;;;;;;12.48;7.20;;;9.80;99.90;;;;;;4902653;29;20028;-69
2023/02/14 12:29:26;;;;;;;11.68;7.15;;;9.90;99.90;;;;;;4884184;29;20088;-68
2023/02/14 12:31:53;;;;;;;11.15;7.70;;;9.90;99.90;;;;;;4884056;29;20041;-68
2023/02/14 12:34:19;;;;;;;12.27;7.45;;;10.10;99.90;;;;;;4901645;29;20027;-68
2023/02/14 12:37:12;;;;;;;10.65;7.20;;;10.10;99.90;;;;;;4888255;29;20039;-68
2023/02/14 12:39:44;;;;;;;12.30;7.32;;;10.00;99.90;;;;;;4884783;29;20398;-68
2023/02/14 12:42:09;;;;;;;11.50;7.65;;;10.00;99.90;;;;;;4901411;29;20478;-68
2023/02/14 12:45:17;;;;;;;12.13;7.65;;;10.00;99.90;;;;;;4901296;29;20032;-68
2023/02/14 12:48:07;;;;;;;14.05;8.60;;;10.00;99.90;;;;;;4880982;29;20115;-68
2023/02/14 12:50:50;;;;;;;12.45;7.43;;;10.10;99.90;;;;;;4901407;29;20431;-68
2023/02/14 12:53:34;;;;;;;13.63;8.45;;;10.20;99.90;;;;;;4875775;29;20017;-68
2023/02/14 12:56:30;;;;;;;12.52;7.45;;;10.20;99.90;;;;;;4884729;29;20514;-68
2023/02/14 12:59:23;;;;;;;12.63;7.63;;;10.40;99.90;;;;;;4900568;29;20067;-68
2023/02/14 13:01:58;;;;;;;12.65;6.85;;;10.50;99.90;;;;;;4900172;29;20439;-68
2023/02/14 13:04:58;;;;;;;12.18;7.57;;;10.60;99.90;;;;;;4900962;29;20036;-68
2023/02/14 13:07:26;;;;;;;11.02;7.50;;;10.50;99.90;;;;;;4900970;29;20530;-67
2023/02/14 13:10:00;;;;;;;10.93;7.72;;;10.50;99.90;;;;;;4901005;29;20029;-68
2023/02/14 13:12:31;;;;;;;;;;;10.50;99.90;;;;;;4884391;29;20036;-68
2023/02/14 13:15:12;;;;;;;9.82;6.25;;;10.50;99.90;;;;;;4900981;29;19957;-68
2023/02/14 13:18:06;;;;;;;12.25;6.78;;;10.50;99.90;;;;;;4903325;29;20036;-68
2023/02/14 13:20:52;;;;;;;10.13;6.57;;;10.50;99.90;;;;;;4903919;29;20032;-67
2023/02/14 13:24:02;;;;;;;11.13;6.55;;;10.60;99.90;;;;;;4903966;29;20101;-68
2023/02/14 13:26:31;;;;;;;9.57;6.63;;;10.60;99.90;;;;;;4842171;29;20625;-69
2023/02/14 13:29:05;;;;;;;11.73;7.18;;;10.70;99.90;;;;;;4897007;29;20386;-68
2023/02/14 13:31:32;;;;;;;11.60;7.50;;;10.70;99.90;;;;;;4887661;29;20020;-68
2023/02/14 13:34:24;;;;;;;10.88;7.47;;;10.80;99.90;;;;;;4904207;29;20029;-68
2023/02/14 13:36:50;;;;;;;10.07;7.20;;;10.70;99.90;;;;;;4897749;29;20020;-67
2023/02/14 13:39:33;;;;;;;12.68;7.85;;;10.70;99.90;;;;;;4904370;29;20102;-67
2023/02/14 13:41:59;;;;;;;10.65;7.88;;;10.80;99.90;;;;;;4886888;29;20448;-68
2023/02/14 13:44:49;;;;;;;12.02;8.10;;;10.80;99.90;;;;;;4904071;29;20064;-68
2023/02/14 13:47:20;;;;;;;12.18;8.35;;;10.90;99.90;;;;;;4903823;29;20027;-68
2023/02/14 13:50:17;;;;;;;12.25;7.78;;;11.00;99.90;;;;;;4904502;29;20502;-67
2023/02/14 13:52:47;;;;;;;10.40;6.90;;;10.90;99.90;;;;;;4903480;29;20021;-68
2023/02/14 13:55:22;;;;;;;11.50;7.68;;;11.00;99.90;;;;;;4903934;29;20045;-68
2023/02/14 13:58:14;;;;;;;11.88;6.95;;;11.00;99.90;;;;;;4903384;29;20031;-68
2023/02/14 14:00:41;;;;;;;13.43;8.43;;;11.00;99.90;;;;;;4903650;29;20032;-68
2023/02/14 14:03:35;;;;;;;11.30;7.85;;;11.00;99.90;;;;;;4903326;29;20029;-68
2023/02/14 14:06:08;;;;;;;13.63;8.75;;;11.10;99.90;;;;;;4903422;29;20039;-68
2023/02/14 14:08:45;;;;;;;10.25;7.75;;;11.10;99.90;;;;;;4900970;29;20064;-67
2023/02/14 14:11:30;;;;;;;13.35;8.00;;;11.20;99.90;;;;;;4903908;29;20036;-68
2023/02/14 14:14:02;;;;;;;11.48;7.97;;;11.20;99.90;;;;;;4875598;29;20079;-68
2023/02/14 14:16:34;;;;;;;11.15;6.97;;;11.20;99.90;;;;;;4903352;29;20024;-68
2023/02/14 14:19:29;;;;;;;11.38;7.20;;;11.30;99.90;;;;;;4902987;29;20112;-68
2023/02/14 14:22:02;;;;;;;11.68;7.82;;;11.40;99.90;;;;;;4902561;29;20544;-68
2023/02/14 14:24:33;;;;;;;10.73;7.53;;;11.50;99.90;;;;;;4903664;29;20053;-68
2023/02/14 14:27:18;;;;;;;11.20;7.68;;;11.50;99.30;;;;;;4885501;29;20117;-68
2023/02/14 14:29:47;;;;;;;10.57;7.20;;;11.70;99.90;;;;;;4913907;29;20025;-68
2023/02/14 14:32:18;;;;;;;12.00;7.25;;;11.70;97.00;;;;;;4886021;29;20115;-67
2023/02/14 14:34:49;;;;;;;13.55;9.05;;;11.70;99.40;;;;;;4902617;29;20032;-68
2023/02/14 14:37:18;;;;;;;13.02;8.05;;;11.80;99.60;;;;;;4889585;29;20061;-68
2023/02/14 14:39:59;;;;;;;12.52;7.95;;;11.70;97.50;;;;;;4886412;29;20056;-68
2023/02/14 14:42:31;;;;;;;11.25;7.68;;;11.60;99.10;;;;;;4902908;29;20024;-68
2023/02/14 14:45:01;;;;;;;10.35;7.25;;;11.70;98.10;;;;;;4903243;29;20060;-67
2023/02/14 14:48:01;;;;;;;10.23;7.13;;;11.70;96.70;;;;;;4902907;29;20111;-68
2023/02/14 14:50:30;;;;;;;8.18;5.88;;;11.60;99.30;;;;;;4903007;29;20040;-68
2023/02/14 14:53:00;;;;;;;11.63;6.97;;;11.60;96.90;;;;;;4885606;29;20443;-68
2023/02/14 14:55:29;;;;;;;10.13;6.47;;;11.60;97.70;;;;;;4885696;29;20052;-67
2023/02/14 14:57:57;;;;;;;10.25;6.63;;;11.60;96.70;;;;;;4902244;29;20028;-67
2023/02/14 15:00:29;;;;;;;10.57;7.38;;;11.70;95.70;;;;;;4907377;29;20024;-67
2023/02/14 15:03:00;;;;;;;10.75;6.75;;;11.80;97.10;;;;;;4894843;29;20049;-67
2023/02/14 15:05:47;;;;;;;10.52;6.75;;;11.80;98.10;;;;;;4902788;29;20028;-67
2023/02/14 15:08:29;;;;;;;8.82;6.05;;;12.00;99.10;;;;;;4902191;29;20114;-67
2023/02/14 15:14:18;;;;;;;9.77;5.57;;;12.00;97.10;;;;;;4893008;29;20034;-67
2023/02/14 15:17:02;;;;;;;9.68;5.72;;;12.00;97.20;;;;;;4902046;29;20032;-67
2023/02/14 15:19:40;;;;;;;;;;;12.10;96.10;;;;;;4902754;29;20040;-67
2023/02/14 15:22:30;;;;;;;8.00;4.78;;;12.00;97.50;;;;;;4901555;29;20285;-66
2023/02/14 15:24:59;;;;;;;7.57;5.07;;;12.00;95.30;;;;;;4885711;29;20033;-66
2023/02/14 15:27:26;;;;;;;8.70;5.72;;;11.90;92.70;;;;;;4885413;29;20029;-67
2023/02/14 15:29:57;;;;;;;8.80;5.85;;;11.90;93.70;;;;;;4901632;29;20032;-69
2023/02/14 15:32:26;;;;;;;11.98;6.35;;;12.00;94.10;;;;;;4902006;29;20048;-67
2023/02/14 15:34:53;;;;;;;9.50;6.18;;;12.00;92.60;;;;;;4901673;29;20029;-67
2023/02/14 15:37:20;;;;;;;9.38;6.15;;;12.00;90.20;;;;;;4901928;29;20028;-67
2023/02/14 15:39:49;;;;;;;10.63;6.35;;;12.00;90.10;;;;;;4902015;29;20025;-67
2023/02/14 15:42:31;;;;;;;10.20;6.13;;;12.00;90.50;;;;;;4885128;29;20037;-67
2023/02/14 15:45:21;;;;;;;7.90;5.95;;;12.00;92.20;;;;;;4902380;29;20029;-67
2023/02/14 15:47:51;;;;;;;8.82;6.03;;;11.90;92.90;;;;;;4884358;29;20564;-67
2023/02/14 15:50:34;;;;;;;9.02;5.75;;;11.90;90.50;;;;;;4902318;29;20028;-67
2023/02/14 15:53:02;;;;;;;7.80;5.32;;;11.90;94.80;;;;;;4901854;29;20056;-68
2023/02/14 15:55:29;;;;;;;9.45;6.10;;;12.00;91.70;;;;;;4885037;29;20044;-67
2023/02/14 15:58:02;;;;;;;9.35;5.97;;;12.00;91.90;;;;;;4884223;29;20028;-67
2023/02/14 16:00:30;;;;;;;10.82;6.95;;;12.10;90.10;;;;;;4901237;29;20112;-67
2023/02/14 16:03:06;;;;;;;8.40;5.93;;;12.00;89.30;;;;;;4884718;29;20112;-67
2023/02/14 16:05:32;;;;;;;10.98;5.97;;;12.00;92.00;;;;;;4901613;29;20045;-67
2023/02/14 16:08:05;;;;;;;9.93;6.53;;;12.10;87.40;;;;;;4901935;29;20402;-67
2023/02/14 16:10:35;;;;;;;10.07;6.43;;;12.00;90.50;;;;;;4901673;29;20111;-67
2023/02/14 16:13:05;;;;;;;10.55;6.82;;;12.00;92.80;;;;;;4901893;29;20103;-67
2023/02/14 16:16:00;;;;;;;9.82;7.00;;;12.00;90.80;;;;;;4902091;29;20115;-67
2023/02/14 16:18:34;;;;;;;8.52;6.20;;;12.10;93.00;;;;;;4901044;29;20048;-67
2023/02/14 16:21:20;;;;;;;11.30;6.53;;;12.10;91.90;;;;;;4884826;29;20474;-67
2023/02/14 16:24:06;;;;;;;11.77;6.53;;;12.00;93.40;;;;;;4900781;29;20104;-67
2023/02/14 16:26:38;;;;;;;9.35;5.63;;;12.00;92.50;;;;;;4901199;29;20078;-67
2023/02/14 16:29:09;;;;;;;9.52;6.65;;;12.00;91.10;;;;;;4883903;29;20414;-67
2023/02/14 16:31:39;;;;;;;12.15;6.85;;;12.00;90.50;;;;;;4901690;29;20122;-68
2023/02/14 16:34:05;;;;;;;10.95;6.72;;;12.00;90.50;;;;;;4900886;29;20016;-67
2023/02/14 16:36:32;;;;;;;9.02;6.47;;;12.00;89.20;;;;;;4889314;29;20040;-68